Archival Weather

Chicago O'Hare International

Chicago, Illinois (KORD)

Report from: Tuesday, December 13, 2022 4:51 AM CST
Current time: Friday, June 21, 2024 3:27 AM CDT

Current weather – Weather history – Daily summaries
Weather forecast

Temperature1.7°C (35.1°F)
Wind chill-3.4°C (25.9°F)
Dew point-2.8°C (27.0°F)
Winds 12 kts (6.2 m/s, 13.8 mph) East-Southeast (120°)
Visibility10 mi. (16.1 km)
Clouds Ceiling: Overcast 2,000 ft. (610 m)
Altimeter30.23 in.Hg (1024 mB)
Relative humidity72 %
Density altitude-1,921 ft. (-585 m)
Sea-level pressure102.4 kPa (1024 mB, 30.25 in.Hg)
Remarks Automated weather observing station with precipitation discriminator
Flight conditions Marginal Visual Meteorological Conditions
Raw dataKORD 131051Z 12012KT 10SM OVC020 02/M03 A3023 RMK AO2 SLP244 T00171028
An error has occurred. This application may no longer respond until reloaded. Reload 🗙